METAR Data
IDs: Format: Raw Decoded Include TAF

Data at: 0616 UTC 24 Sep 2018

K0R0 240555Z AUTO 00000KT 10SM CLR 23/22 A2999 RMK AO2 PWINO TSNO
K0R0 240535Z AUTO 10003KT 7SM FEW030 SCT038 23/22 A3000 RMK AO2 PWINO TSNO
K0R0 240515Z AUTO 00000KT 6SM BR FEW023 SCT031 22/22 A3000 RMK AO2 PWINO TSNO
K0R0 240455Z AUTO 00000KT 6SM BR FEW023 SCT049 23/22 A3001 RMK AO2 PWINO TSNO
K0R0 240435Z AUTO 00000KT 8SM FEW055 23/22 A3001 RMK AO2 PWINO TSNO
K0R0 240415Z AUTO 00000KT 9SM SCT055 23/22 A3001 RMK AO2 PWINO TSNO
K0R0 240355Z AUTO 00000KT 10SM CLR 23/22 A3001 RMK AO2 PWINO TSNO
K0R0 240335Z AUTO 00000KT 10SM CLR 24/23 A3001 RMK AO2 PWINO TSNO
K0R0 240315Z AUTO 00000KT 10SM CLR 24/23 A3000 RMK AO2 PWINO TSNO
K0R0 240255Z AUTO 00000KT 10SM CLR 24/23 A2999 RMK AO2 PWINO TSNO
K0R0 240235Z AUTO 00000KT 10SM CLR 25/23 A2999 RMK AO2 PWINO TSNO
K0R0 240215Z AUTO 00000KT 10SM CLR 25/23 A2999 RMK AO2 PWINO TSNO
K0R0 240155Z AUTO 00000KT 10SM CLR 25/23 A2998 RMK AO2 PWINO TSNO
K0R0 240135Z AUTO 00000KT 10SM CLR 25/23 A2997 RMK AO2 PWINO TSNO
K0R0 240115Z AUTO 11003KT 10SM CLR 25/23 A2997 RMK AO2 PWINO TSNO
K0R0 240055Z AUTO 00000KT 10SM CLR 25/24 A2996 RMK AO2 PWINO TSNO
K0R0 240035Z AUTO 00000KT 10SM CLR 26/24 A2996 RMK AO2 PWINO TSNO
K0R0 240015Z AUTO 00000KT 10SM FEW090 26/24 A2995 RMK AO2 PWINO TSNO
K0R0 232355Z AUTO 13003KT 10SM SCT090 26/24 A2996 RMK AO2 PWINO TSNO
K0R0 232335Z AUTO VRB03KT 10SM CLR 26/24 A2996 RMK AO2 PWINO TSNO
K0R0 232315Z AUTO 00000KT 10SM CLR 27/24 A2995 RMK AO2 PWINO TSNO
K0R0 232255Z AUTO 00000KT 10SM CLR 27/24 A2994 RMK AO2 PWINO TSNO
K0R0 232235Z AUTO 00000KT 10SM CLR 27/24 A2995 RMK AO2 PWINO TSNO
K0R0 232215Z AUTO 00000KT 10SM CLR 28/23 A2995 RMK AO2 PWINO TSNO
K0R0 232155Z AUTO 12003KT 10SM CLR 27/23 A2995 RMK AO2 PWINO TSNO
K0R0 232135Z AUTO 00000KT 10SM FEW037 FEW044 27/22 A2995 RMK AO2 PWINO TSNO
K0R0 232115Z AUTO 20006G14KT 9SM FEW037 SCT044 28/22 A2995 RMK AO2 PWINO TSNO
K0R0 232055Z AUTO 19009G16KT 10SM CLR 30/23 A2995 RMK AO2 PWINO TSNO
K0R0 232035Z AUTO 00000KT 10SM CLR 32/23 A2994 RMK AO2 PWINO TSNO
K0R0 232015Z AUTO 19004KT 10SM CLR 31/22 A2995 RMK AO2 PWINO TSNO
K0R0 231955Z AUTO 00000KT 10SM CLR 31/22 A2995 RMK AO2 PWINO TSNO
K0R0 231935Z AUTO 21005KT 10SM CLR 29/22 A2997 RMK AO2 PWINO TSNO
K0R0 231915Z AUTO 21003KT 10SM CLR 30/21 A2997 RMK AO2 PWINO TSNO
K0R0 231855Z AUTO 00000KT 8SM FEW070 26/23 A2999 RMK AO2 PWINO TSNO
K0R0 231835Z AUTO 19007G12KT 10SM FEW030 SCT037 BKN070 26/22 A3001 RMK AO2 PWINO TSNO
K0R0 231815Z AUTO 17010KT 10SM FEW036 30/23 A3001 RMK AO2 PWINO TSNO
K0R0 231755Z AUTO 18004KT 10SM FEW031 FEW036 FEW043 30/22 A3001 RMK AO2 PWINO TSNO
K0R0 231735Z AUTO 16007KT 10SM BKN032 BKN042 BKN095 30/23 A3002 RMK AO2 PWINO TSNO
K0R0 231715Z AUTO 16006KT 10SM FEW029 32/23 A3003 RMK AO2 PWINO TSNO
K0R0 231655Z AUTO 14005KT 9SM CLR 31/23 A3003 RMK AO2 PWINO TSNO
K0R0 231635Z AUTO VRB04KT 9SM SCT028 SCT034 BKN049 30/24 A3004 RMK AO2 PWINO TSNO
K0R0 231615Z AUTO 18004KT 9SM FEW025 SCT029 BKN046 30/23 A3004 RMK AO2 PWINO TSNO
K0R0 231555Z AUTO VRB04KT 10SM SCT024 SCT037 29/23 A3004 RMK AO2 PWINO TSNO
K0R0 231535Z AUTO 15006KT 10SM FEW023 SCT028 29/24 A3004 RMK AO2 PWINO TSNO
K0R0 231515Z AUTO VRB05KT 10SM FEW022 29/24 A3004 RMK AO2 PWINO TSNO
K0R0 231455Z AUTO 17005KT 10SM CLR 29/23 A3004 RMK AO2 PWINO TSNO
K0R0 231435Z AUTO VRB04KT 10SM CLR 28/24 A3004 RMK AO2 PWINO TSNO
K0R0 231415Z AUTO 18003KT 10SM CLR 28/24 A3004 RMK AO2 PWINO TSNO
K0R0 231355Z AUTO 11003KT 10SM FEW025 27/24 A3003 RMK AO2 PWINO TSNO
K0R0 231335Z AUTO 00000KT 10SM FEW025 26/23 A3003 RMK AO2 PWINO TSNO
K0R0 231315Z AUTO 00000KT 10SM CLR 25/23 A3003 RMK AO2 PWINO TSNO
K0R0 231255Z AUTO 08003KT 10SM CLR 24/23 A3002 RMK AO2 PWINO TSNO
K0R0 231235Z AUTO 00000KT 10SM CLR 22/22 A3002 RMK AO2 PWINO TSNO
K0R0 231215Z AUTO 00000KT 6SM BR CLR 22/21 A3002 RMK AO2 PWINO TSNO
K0R0 231155Z AUTO 00000KT 5SM BR CLR 21/21 A3001 RMK AO2 PWINO TSNO
K0R0 231135Z AUTO 00000KT 5SM BR CLR 21/21 A3001 RMK AO2 PWINO TSNO
K0R0 231115Z AUTO 00000KT 4SM BR CLR 21/21 A3000 RMK AO2 PWINO TSNO
K0R0 231055Z AUTO 00000KT 7SM CLR 21/21 A3000 RMK AO2 PWINO TSNO
K0R0 231035Z AUTO 00000KT 10SM FEW029 FEW033 22/21 A2999 RMK AO2 PWINO TSNO
K0R0 231015Z AUTO 00000KT 7SM FEW027 21/21 A2999 RMK AO2 PWINO TSNO
K0R0 230955Z AUTO 00000KT 8SM SCT025 SCT036 21/21 A2999 RMK AO2 PWINO TSNO
K0R0 230935Z AUTO 00000KT 7SM SCT024 BKN028 BKN033 22/21 A2999 RMK AO2 PWINO TSNO
K0R0 230915Z AUTO 00000KT 6SM BR CLR 21/21 A2999 RMK AO2 PWINO TSNO
K0R0 230855Z AUTO 00000KT 8SM CLR 22/21 A2999 RMK AO2 PWINO TSNO
K0R0 230835Z AUTO 00000KT 8SM CLR 22/21 A2999 RMK AO2 PWINO TSNO
K0R0 230815Z AUTO 00000KT 10SM CLR 22/21 A2999 RMK AO2 PWINO TSNO
K0R0 230755Z AUTO 00000KT 9SM CLR 22/21 A3000 RMK AO2 PWINO TSNO
K0R0 230735Z AUTO 00000KT 8SM CLR 22/21 A3000 RMK AO2 PWINO TSNO
K0R0 230715Z AUTO 00000KT 8SM CLR 22/21 A3000 RMK AO2 PWINO TSNO
K0R0 230655Z AUTO 00000KT 9SM CLR 22/22 A3000 RMK AO2 PWINO TSNO
K0R0 230635Z AUTO 00000KT 10SM FEW027 FEW032 23/22 A3000 RMK AO2 PWINO TSNO
K0R0 230615Z AUTO 00000KT 6SM BR SCT027 SCT032 23/22 A3001 RMK AO2 PWINO TSNO
K0R0 230555Z AUTO 00000KT 10SM CLR 23/22 A3001 RMK AO2 PWINO TSNO
K0R0 230535Z AUTO 11004KT 10SM CLR 23/22 A3001 RMK AO2 PWINO TSNO
K0R0 230515Z AUTO 08006KT 10SM FEW021 SCT026 23/22 A3001 RMK AO2 PWINO TSNO
K0R0 230455Z AUTO 00000KT 9SM OVC024 23/23 A3002 RMK AO2 PWINO TSNO
K0R0 230435Z AUTO 00000KT 10SM BKN026 BKN032 BKN038 24/23 A3003 RMK AO2 PWINO TSNO
K0R0 230415Z AUTO 00000KT 10SM BKN029 BKN033 23/23 A3003 RMK AO2 PWINO TSNO
K0R0 230355Z AUTO 00000KT 10SM FEW021 FEW026 SCT120 23/23 A3003 RMK AO2 PWINO TSNO
K0R0 230335Z AUTO 00000KT 10SM FEW021 SCT027 BKN120 23/23 A3004 RMK AO2 PWINO TSNO
K0R0 230315Z AUTO 06004KT 10SM CLR 23/22 A3004 RMK AO2 PWINO TSNO
K0R0 230255Z AUTO 00000KT 10SM CLR 23/23 A3004 RMK AO2 PWINO TSNO
K0R0 230235Z AUTO 00000KT 10SM CLR 23/23 A3004 RMK AO2 PWINO TSNO
K0R0 230215Z AUTO 00000KT 10SM CLR 24/23 A3003 RMK AO2 PWINO TSNO
K0R0 230155Z AUTO 00000KT 10SM FEW120 24/23 A3003 RMK AO2 PWINO TSNO
K0R0 230135Z AUTO 13004KT 10SM SCT120 24/23 A3003 RMK AO2 PWINO TSNO
K0R0 230115Z AUTO 00000KT 10SM FEW095 BKN120 24/23 A3003 RMK AO2 PWINO TSNO
K0R0 230055Z AUTO 00000KT 10SM BKN095 BKN120 24/23 A3002 RMK AO2 PWINO TSNO
K0R0 230035Z AUTO 00000KT 10SM SCT095 SCT120 25/23 A3001 RMK AO2 PWINO TSNO
K0R0 230015Z AUTO 23004KT 10SM CLR 25/22 A3001 RMK AO2 PWINO TSNO
K0R0 222355Z AUTO 16004KT 10SM CLR 25/23 A3000 RMK AO2 PWINO TSNO
K0R0 222335Z AUTO 19005KT 10SM FEW120 25/23 A3001 RMK AO2 PWINO TSNO
K0R0 222315Z AUTO 18003KT 10SM BKN120 26/23 A3001 RMK AO2 PWINO TSNO
K0R0 222255Z AUTO 15006KT 10SM SCT110 26/23 A3000 RMK AO2 PWINO TSNO
K0R0 222235Z AUTO 14007KT 10SM CLR 27/23 A3000 RMK AO2 PWINO TSNO
K0R0 222215Z AUTO 13006KT 10SM CLR 27/24 A3000 RMK AO2 PWINO TSNO
K0R0 222155Z AUTO 11006KT 10SM CLR 28/23 A3000 RMK AO2 PWINO TSNO
K0R0 222135Z AUTO 08005KT 10SM CLR 28/24 A2999 RMK AO2 PWINO TSNO
K0R0 222115Z AUTO 00000KT 10SM CLR 28/25 A3000 RMK AO2 PWINO TSNO
K0R0 222055Z AUTO 00000KT 10SM CLR 27/24 A3000 RMK AO2 PWINO TSNO
K0R0 222035Z AUTO 06006KT 10SM CLR 25/24 A3000 RMK AO2 PWINO TSNO
K0R0 222015Z AUTO 00000KT 2SM BR CLR 24/23 A3000 RMK AO2 PWINO TSNO
K0R0 221955Z AUTO 16008G18KT 1/4SM FG SCT002 BKN041 BKN050 23/22 A3001 RMK AO2 PWINO TSNO
K0R0 221935Z AUTO 17015G27KT 5SM BR FEW040 BKN049 BKN070 25/23 A3003 RMK AO2 PWINO TSNO
K0R0 221915Z AUTO 00000KT 8SM FEW070 28/25 A3000 RMK AO2 PWINO TSNO
K0R0 221855Z AUTO 20005KT 8SM CLR 25/23 A3002 RMK AO2 PWINO TSNO
K0R0 221835Z AUTO 22014KT 1 3/4SM HZ CLR 25/22 A3003 RMK AO2 VIS 3/4V5 PWINO TSNO